sensor_id;sensor_type;location;lat;lon;timestamp;temperature;humidity
17421;DHT22;8828;48.800;9.540;2023-01-29T00:02:06;3.40;99.90
17421;DHT22;8828;48.800;9.540;2023-01-29T00:04:34;3.30;99.90
17421;DHT22;8828;48.800;9.540;2023-01-29T00:07:02;3.30;99.90
17421;DHT22;8828;48.800;9.540;2023-01-29T00:09:30;3.40;99.90
17421;DHT22;8828;48.800;9.540;2023-01-29T00:11:58;3.30;99.90
17421;DHT22;8828;48.800;9.540;2023-01-29T00:14:26;3.30;99.90
17421;DHT22;8828;48.800;9.540;2023-01-29T00:16:54;3.30;99.90
17421;DHT22;8828;48.800;9.540;2023-01-29T00:19:24;3.40;99.90
17421;DHT22;8828;48.800;9.540;2023-01-29T00:21:52;3.30;99.90
17421;DHT22;8828;48.800;9.540;2023-01-29T00:24:20;3.40;99.90
17421;DHT22;8828;48.800;9.540;2023-01-29T00:26:48;3.30;99.90
17421;DHT22;8828;48.800;9.540;2023-01-29T00:29:16;3.30;99.90
17421;DHT22;8828;48.800;9.540;2023-01-29T00:31:45;3.30;99.90
17421;DHT22;8828;48.800;9.540;2023-01-29T00:34:13;3.30;99.90
17421;DHT22;8828;48.800;9.540;2023-01-29T00:36:42;3.30;99.90
17421;DHT22;8828;48.800;9.540;2023-01-29T00:39:11;3.30;99.90
17421;DHT22;8828;48.800;9.540;2023-01-29T00:41:39;3.30;99.90
17421;DHT22;8828;48.800;9.540;2023-01-29T00:44:24;3.30;99.90
17421;DHT22;8828;48.800;9.540;2023-01-29T00:47:09;3.30;99.90
17421;DHT22;8828;48.800;9.540;2023-01-29T00:49:56;3.30;99.90
17421;DHT22;8828;48.800;9.540;2023-01-29T00:52:26;3.30;99.90
17421;DHT22;8828;48.800;9.540;2023-01-29T00:54:56;3.30;99.90
17421;DHT22;8828;48.800;9.540;2023-01-29T00:57:25;3.20;99.90
17421;DHT22;8828;48.800;9.540;2023-01-29T00:59:54;3.30;99.90
17421;DHT22;8828;48.800;9.540;2023-01-29T01:02:22;3.30;99.90
17421;DHT22;8828;48.800;9.540;2023-01-29T01:05:08;3.30;99.90
17421;DHT22;8828;48.800;9.540;2023-01-29T01:07:40;3.30;99.90
17421;DHT22;8828;48.800;9.540;2023-01-29T01:10:12;3.30;99.90
17421;DHT22;8828;48.800;9.540;2023-01-29T01:12:50;3.30;99.90
17421;DHT22;8828;48.800;9.540;2023-01-29T01:15:19;3.30;99.90
17421;DHT22;8828;48.800;9.540;2023-01-29T01:17:51;3.30;99.90
17421;DHT22;8828;48.800;9.540;2023-01-29T01:20:19;3.30;99.90
17421;DHT22;8828;48.800;9.540;2023-01-29T01:22:49;3.30;99.90
17421;DHT22;8828;48.800;9.540;2023-01-29T01:25:17;3.30;99.90
17421;DHT22;8828;48.800;9.540;2023-01-29T01:27:45;3.30;99.90
17421;DHT22;8828;48.800;9.540;2023-01-29T01:30:15;3.30;99.90
17421;DHT22;8828;48.800;9.540;2023-01-29T01:32:43;3.30;99.90
17421;DHT22;8828;48.800;9.540;2023-01-29T01:35:12;3.30;99.90
17421;DHT22;8828;48.800;9.540;2023-01-29T01:37:40;3.30;99.90
17421;DHT22;8828;48.800;9.540;2023-01-29T01:40:14;3.30;99.90
17421;DHT22;8828;48.800;9.540;2023-01-29T01:42:47;3.30;99.90
17421;DHT22;8828;48.800;9.540;2023-01-29T01:45:21;3.30;99.90
17421;DHT22;8828;48.800;9.540;2023-01-29T01:47:51;3.20;99.90
17421;DHT22;8828;48.800;9.540;2023-01-29T01:50:23;3.20;99.90
17421;DHT22;8828;48.800;9.540;2023-01-29T01:52:56;3.30;99.90
17421;DHT22;8828;48.800;9.540;2023-01-29T01:55:28;3.20;99.90
17421;DHT22;8828;48.800;9.540;2023-01-29T01:58:01;3.20;99.90
17421;DHT22;8828;48.800;9.540;2023-01-29T02:00:30;3.20;99.90
17421;DHT22;8828;48.800;9.540;2023-01-29T02:02:59;3.10;99.90
17421;DHT22;8828;48.800;9.540;2023-01-29T02:05:46;3.10;99.90
17421;DHT22;8828;48.800;9.540;2023-01-29T02:08:37;3.10;99.90
17421;DHT22;8828;48.800;9.540;2023-01-29T02:11:28;3.10;99.90
17421;DHT22;8828;48.800;9.540;2023-01-29T02:13:56;3.10;99.90
17421;DHT22;8828;48.800;9.540;2023-01-29T02:16:24;3.10;99.90
17421;DHT22;8828;48.800;9.540;2023-01-29T02:18:53;3.10;99.90
17421;DHT22;8828;48.800;9.540;2023-01-29T02:21:40;3.10;99.90
17421;DHT22;8828;48.800;9.540;2023-01-29T02:24:30;3.20;99.90
17421;DHT22;8828;48.800;9.540;2023-01-29T02:27:07;3.20;99.90
17421;DHT22;8828;48.800;9.540;2023-01-29T02:29:47;3.20;99.90
17421;DHT22;8828;48.800;9.540;2023-01-29T02:32:23;3.10;99.90
17421;DHT22;8828;48.800;9.540;2023-01-29T02:34:59;3.20;99.90
17421;DHT22;8828;48.800;9.540;2023-01-29T02:37:54;3.10;99.90
17421;DHT22;8828;48.800;9.540;2023-01-29T02:40:28;3.10;99.90
17421;DHT22;8828;48.800;9.540;2023-01-29T02:43:06;3.10;99.90
17421;DHT22;8828;48.800;9.540;2023-01-29T02:45:42;3.10;99.90
17421;DHT22;8828;48.800;9.540;2023-01-29T02:48:18;3.00;99.90
17421;DHT22;8828;48.800;9.540;2023-01-29T02:50:50;3.00;99.90
17421;DHT22;8828;48.800;9.540;2023-01-29T02:53:26;3.00;99.90
17421;DHT22;8828;48.800;9.540;2023-01-29T02:55:58;3.10;99.90
17421;DHT22;8828;48.800;9.540;2023-01-29T02:58:31;3.10;99.90
17421;DHT22;8828;48.800;9.540;2023-01-29T03:01:05;3.10;99.90
17421;DHT22;8828;48.800;9.540;2023-01-29T03:03:40;3.10;99.90
17421;DHT22;8828;48.800;9.540;2023-01-29T03:06:13;3.20;99.90
17421;DHT22;8828;48.800;9.540;2023-01-29T03:08:48;3.10;99.90
17421;DHT22;8828;48.800;9.540;2023-01-29T03:11:20;3.10;99.90
17421;DHT22;8828;48.800;9.540;2023-01-29T03:13:52;3.10;99.90
17421;DHT22;8828;48.800;9.540;2023-01-29T03:16:28;3.10;99.90
17421;DHT22;8828;48.800;9.540;2023-01-29T03:19:01;3.10;99.90
17421;DHT22;8828;48.800;9.540;2023-01-29T03:21:35;3.10;99.90
17421;DHT22;8828;48.800;9.540;2023-01-29T03:24:25;3.00;99.90
17421;DHT22;8828;48.800;9.540;2023-01-29T03:27:17;3.10;99.90
17421;DHT22;8828;48.800;9.540;2023-01-29T03:30:07;3.00;99.90
17421;DHT22;8828;48.800;9.540;2023-01-29T03:32:58;3.00;99.90
17421;DHT22;8828;48.800;9.540;2023-01-29T03:35:29;3.00;99.90
17421;DHT22;8828;48.800;9.540;2023-01-29T03:38:02;3.00;99.90
17421;DHT22;8828;48.800;9.540;2023-01-29T03:40:35;2.90;99.90
17421;DHT22;8828;48.800;9.540;2023-01-29T03:43:09;2.90;99.90
17421;DHT22;8828;48.800;9.540;2023-01-29T03:45:42;2.90;99.90
17421;DHT22;8828;48.800;9.540;2023-01-29T03:48:24;3.00;99.90
17421;DHT22;8828;48.800;9.540;2023-01-29T03:51:00;3.00;99.90
17421;DHT22;8828;48.800;9.540;2023-01-29T03:53:39;3.00;99.90
17421;DHT22;8828;48.800;9.540;2023-01-29T03:56:18;3.00;99.90
17421;DHT22;8828;48.800;9.540;2023-01-29T03:58:54;3.00;99.90
17421;DHT22;8828;48.800;9.540;2023-01-29T04:01:26;3.00;99.90
17421;DHT22;8828;48.800;9.540;2023-01-29T04:04:02;3.00;99.90
17421;DHT22;8828;48.800;9.540;2023-01-29T04:06:34;3.00;99.90
17421;DHT22;8828;48.800;9.540;2023-01-29T04:09:05;3.00;99.90
17421;DHT22;8828;48.800;9.540;2023-01-29T04:11:40;3.00;99.90
17421;DHT22;8828;48.800;9.540;2023-01-29T04:14:10;3.00;99.90
17421;DHT22;8828;48.800;9.540;2023-01-29T04:16:41;3.00;99.90
17421;DHT22;8828;48.800;9.540;2023-01-29T04:19:12;3.00;99.90
17421;DHT22;8828;48.800;9.540;2023-01-29T04:21:41;3.00;99.90
17421;DHT22;8828;48.800;9.540;2023-01-29T04:24:10;3.00;99.90
17421;DHT22;8828;48.800;9.540;2023-01-29T04:26:53;3.00;99.90
17421;DHT22;8828;48.800;9.540;2023-01-29T04:29:38;3.00;99.90
17421;DHT22;8828;48.800;9.540;2023-01-29T04:32:13;3.00;99.90
17421;DHT22;8828;48.800;9.540;2023-01-29T04:34:54;3.00;99.90
17421;DHT22;8828;48.800;9.540;2023-01-29T04:37:34;3.00;99.90
17421;DHT22;8828;48.800;9.540;2023-01-29T04:40:09;3.00;99.90
17421;DHT22;8828;48.800;9.540;2023-01-29T04:42:45;3.00;99.90
17421;DHT22;8828;48.800;9.540;2023-01-29T04:45:18;2.90;99.90
17421;DHT22;8828;48.800;9.540;2023-01-29T04:47:59;2.90;99.90
17421;DHT22;8828;48.800;9.540;2023-01-29T04:50:35;2.90;99.90
17421;DHT22;8828;48.800;9.540;2023-01-29T04:53:11;2.80;99.90
17421;DHT22;8828;48.800;9.540;2023-01-29T04:55:42;2.80;99.90
17421;DHT22;8828;48.800;9.540;2023-01-29T04:58:14;2.80;99.90
17421;DHT22;8828;48.800;9.540;2023-01-29T05:00:48;2.80;99.90
17421;DHT22;8828;48.800;9.540;2023-01-29T05:03:21;2.70;99.90
17421;DHT22;8828;48.800;9.540;2023-01-29T05:05:53;2.80;99.90
17421;DHT22;8828;48.800;9.540;2023-01-29T05:08:24;2.70;99.90
17421;DHT22;8828;48.800;9.540;2023-01-29T05:10:54;2.70;99.90
17421;DHT22;8828;48.800;9.540;2023-01-29T05:13:24;2.70;99.90
17421;DHT22;8828;48.800;9.540;2023-01-29T05:15:59;2.70;99.90
17421;DHT22;8828;48.800;9.540;2023-01-29T05:18:28;2.70;99.90
17421;DHT22;8828;48.800;9.540;2023-01-29T05:21:01;2.80;99.90
17421;DHT22;8828;48.800;9.540;2023-01-29T05:23:31;2.80;99.90
17421;DHT22;8828;48.800;9.540;2023-01-29T05:25:59;2.80;99.90
17421;DHT22;8828;48.800;9.540;2023-01-29T05:28:27;2.80;99.90
17421;DHT22;8828;48.800;9.540;2023-01-29T05:30:55;2.80;99.90
17421;DHT22;8828;48.800;9.540;2023-01-29T05:33:24;2.80;99.90
17421;DHT22;8828;48.800;9.540;2023-01-29T05:35:53;2.70;99.90
17421;DHT22;8828;48.800;9.540;2023-01-29T05:38:22;2.80;99.90
17421;DHT22;8828;48.800;9.540;2023-01-29T05:40:50;2.70;99.90
17421;DHT22;8828;48.800;9.540;2023-01-29T05:43:20;2.70;99.90
17421;DHT22;8828;48.800;9.540;2023-01-29T05:45:52;2.70;99.90
17421;DHT22;8828;48.800;9.540;2023-01-29T05:48:20;2.70;99.90
17421;DHT22;8828;48.800;9.540;2023-01-29T05:50:49;2.70;99.90
17421;DHT22;8828;48.800;9.540;2023-01-29T05:53:17;2.70;99.90
17421;DHT22;8828;48.800;9.540;2023-01-29T05:55:47;2.70;99.90
17421;DHT22;8828;48.800;9.540;2023-01-29T05:58:15;2.70;99.90
17421;DHT22;8828;48.800;9.540;2023-01-29T06:00:45;2.70;99.90
17421;DHT22;8828;48.800;9.540;2023-01-29T06:03:13;2.70;99.90
17421;DHT22;8828;48.800;9.540;2023-01-29T06:05:41;2.70;99.90
17421;DHT22;8828;48.800;9.540;2023-01-29T06:08:09;2.70;99.90
17421;DHT22;8828;48.800;9.540;2023-01-29T06:10:37;2.70;99.90
17421;DHT22;8828;48.800;9.540;2023-01-29T06:13:07;2.70;99.90
17421;DHT22;8828;48.800;9.540;2023-01-29T06:15:34;2.60;99.90
17421;DHT22;8828;48.800;9.540;2023-01-29T06:18:05;2.60;99.90
17421;DHT22;8828;48.800;9.540;2023-01-29T06:20:34;2.60;99.90
17421;DHT22;8828;48.800;9.540;2023-01-29T06:23:01;2.60;99.90
17421;DHT22;8828;48.800;9.540;2023-01-29T06:25:29;2.60;99.90
17421;DHT22;8828;48.800;9.540;2023-01-29T06:27:57;2.60;99.90
17421;DHT22;8828;48.800;9.540;2023-01-29T06:30:26;2.60;99.90
17421;DHT22;8828;48.800;9.540;2023-01-29T06:32:55;2.60;99.90
17421;DHT22;8828;48.800;9.540;2023-01-29T06:35:24;2.60;99.90
17421;DHT22;8828;48.800;9.540;2023-01-29T06:37:52;2.60;99.90
17421;DHT22;8828;48.800;9.540;2023-01-29T06:40:20;2.60;99.90
17421;DHT22;8828;48.800;9.540;2023-01-29T06:42:48;2.70;99.90
17421;DHT22;8828;48.800;9.540;2023-01-29T06:45:16;2.70;99.90
17421;DHT22;8828;48.800;9.540;2023-01-29T06:47:46;2.60;99.90
17421;DHT22;8828;48.800;9.540;2023-01-29T06:50:14;2.70;99.90
17421;DHT22;8828;48.800;9.540;2023-01-29T06:52:42;2.60;99.90
17421;DHT22;8828;48.800;9.540;2023-01-29T06:55:10;2.70;99.90
17421;DHT22;8828;48.800;9.540;2023-01-29T06:57:38;2.60;99.90
17421;DHT22;8828;48.800;9.540;2023-01-29T07:00:07;2.60;99.90
17421;DHT22;8828;48.800;9.540;2023-01-29T07:02:36;2.60;99.90
17421;DHT22;8828;48.800;9.540;2023-01-29T07:05:06;2.60;99.90
17421;DHT22;8828;48.800;9.540;2023-01-29T07:07:34;2.60;99.90
17421;DHT22;8828;48.800;9.540;2023-01-29T07:10:04;2.60;99.90
17421;DHT22;8828;48.800;9.540;2023-01-29T07:12:32;2.60;99.90
17421;DHT22;8828;48.800;9.540;2023-01-29T07:15:00;2.60;99.90
17421;DHT22;8828;48.800;9.540;2023-01-29T07:17:28;2.60;99.90
17421;DHT22;8828;48.800;9.540;2023-01-29T07:19:56;2.60;99.90
17421;DHT22;8828;48.800;9.540;2023-01-29T07:22:26;2.60;99.90
17421;DHT22;8828;48.800;9.540;2023-01-29T07:24:54;2.60;99.90
17421;DHT22;8828;48.800;9.540;2023-01-29T07:27:21;2.60;99.90
17421;DHT22;8828;48.800;9.540;2023-01-29T07:29:49;2.50;99.90
17421;DHT22;8828;48.800;9.540;2023-01-29T07:32:17;2.60;99.90
17421;DHT22;8828;48.800;9.540;2023-01-29T07:34:45;2.60;99.90
17421;DHT22;8828;48.800;9.540;2023-01-29T07:37:13;2.60;99.90
17421;DHT22;8828;48.800;9.540;2023-01-29T07:39:43;2.60;99.90
17421;DHT22;8828;48.800;9.540;2023-01-29T07:42:12;2.50;99.90
17421;DHT22;8828;48.800;9.540;2023-01-29T07:44:40;2.50;99.90
17421;DHT22;8828;48.800;9.540;2023-01-29T07:47:08;2.50;99.90
17421;DHT22;8828;48.800;9.540;2023-01-29T07:49:36;2.60;99.90
17421;DHT22;8828;48.800;9.540;2023-01-29T07:52:04;2.50;99.90
17421;DHT22;8828;48.800;9.540;2023-01-29T07:54:32;2.60;99.90
17421;DHT22;8828;48.800;9.540;2023-01-29T07:57:01;2.60;99.90
17421;DHT22;8828;48.800;9.540;2023-01-29T07:59:29;2.60;99.90
17421;DHT22;8828;48.800;9.540;2023-01-29T08:01:57;2.70;99.90
17421;DHT22;8828;48.800;9.540;2023-01-29T08:04:25;2.70;99.90
17421;DHT22;8828;48.800;9.540;2023-01-29T08:06:53;2.80;99.90
17421;DHT22;8828;48.800;9.540;2023-01-29T08:09:21;2.80;99.90
17421;DHT22;8828;48.800;9.540;2023-01-29T08:11:49;2.80;99.90
17421;DHT22;8828;48.800;9.540;2023-01-29T08:14:18;2.80;99.90
17421;DHT22;8828;48.800;9.540;2023-01-29T08:16:46;2.80;99.90
17421;DHT22;8828;48.800;9.540;2023-01-29T08:19:15;2.90;99.90
17421;DHT22;8828;48.800;9.540;2023-01-29T08:21:42;2.80;99.90
17421;DHT22;8828;48.800;9.540;2023-01-29T08:24:10;2.80;99.90
17421;DHT22;8828;48.800;9.540;2023-01-29T08:26:38;2.90;99.90
17421;DHT22;8828;48.800;9.540;2023-01-29T08:29:06;2.90;99.90
17421;DHT22;8828;48.800;9.540;2023-01-29T08:31:36;2.90;99.90
17421;DHT22;8828;48.800;9.540;2023-01-29T08:34:04;2.90;99.90
17421;DHT22;8828;48.800;9.540;2023-01-29T08:36:32;2.90;99.90
17421;DHT22;8828;48.800;9.540;2023-01-29T08:39:00;2.90;99.90
17421;DHT22;8828;48.800;9.540;2023-01-29T08:41:28;3.00;99.90
17421;DHT22;8828;48.800;9.540;2023-01-29T08:43:56;3.00;99.90
17421;DHT22;8828;48.800;9.540;2023-01-29T08:46:26;3.00;99.90
17421;DHT22;8828;48.800;9.540;2023-01-29T08:48:55;3.00;99.90
17421;DHT22;8828;48.800;9.540;2023-01-29T08:51:24;3.00;99.90
17421;DHT22;8828;48.800;9.540;2023-01-29T08:53:52;3.00;99.90
17421;DHT22;8828;48.800;9.540;2023-01-29T08:56:20;3.00;99.90
17421;DHT22;8828;48.800;9.540;2023-01-29T08:58:48;3.00;99.90
17421;DHT22;8828;48.800;9.540;2023-01-29T09:01:16;3.00;99.90
17421;DHT22;8828;48.800;9.540;2023-01-29T09:03:44;3.00;99.90
17421;DHT22;8828;48.800;9.540;2023-01-29T09:06:14;3.00;99.90
17421;DHT22;8828;48.800;9.540;2023-01-29T09:08:42;3.00;99.90
17421;DHT22;8828;48.800;9.540;2023-01-29T09:11:10;3.00;99.90
17421;DHT22;8828;48.800;9.540;2023-01-29T09:13:38;3.00;99.90
17421;DHT22;8828;48.800;9.540;2023-01-29T09:16:06;3.10;99.90
17421;DHT22;8828;48.800;9.540;2023-01-29T09:18:34;3.10;99.90
17421;DHT22;8828;48.800;9.540;2023-01-29T09:21:03;3.10;99.90
17421;DHT22;8828;48.800;9.540;2023-01-29T09:23:32;3.10;99.90
17421;DHT22;8828;48.800;9.540;2023-01-29T09:26:00;3.10;99.90
17421;DHT22;8828;48.800;9.540;2023-01-29T09:28:28;3.20;99.90
17421;DHT22;8828;48.800;9.540;2023-01-29T09:30:59;3.20;99.90
17421;DHT22;8828;48.800;9.540;2023-01-29T09:33:28;3.20;99.90
17421;DHT22;8828;48.800;9.540;2023-01-29T09:35:56;3.20;99.90
17421;DHT22;8828;48.800;9.540;2023-01-29T09:38:24;3.20;99.90
17421;DHT22;8828;48.800;9.540;2023-01-29T09:41:00;3.30;99.90
17421;DHT22;8828;48.800;9.540;2023-01-29T09:43:38;3.30;99.90
17421;DHT22;8828;48.800;9.540;2023-01-29T09:46:18;3.40;99.90
17421;DHT22;8828;48.800;9.540;2023-01-29T09:48:54;3.40;99.90
17421;DHT22;8828;48.800;9.540;2023-01-29T09:51:27;3.40;99.90
17421;DHT22;8828;48.800;9.540;2023-01-29T09:54:14;3.50;99.90
17421;DHT22;8828;48.800;9.540;2023-01-29T09:56:47;3.50;99.90
17421;DHT22;8828;48.800;9.540;2023-01-29T09:59:18;3.60;99.90
17421;DHT22;8828;48.800;9.540;2023-01-29T10:01:54;3.60;99.90
17421;DHT22;8828;48.800;9.540;2023-01-29T10:04:56;3.60;99.90
17421;DHT22;8828;48.800;9.540;2023-01-29T10:07:46;3.70;99.90
17421;DHT22;8828;48.800;9.540;2023-01-29T10:10:28;3.80;99.90
17421;DHT22;8828;48.800;9.540;2023-01-29T10:13:05;3.80;99.90
17421;DHT22;8828;48.800;9.540;2023-01-29T10:15:48;4.00;99.90
17421;DHT22;8828;48.800;9.540;2023-01-29T10:18:40;4.00;99.90
17421;DHT22;8828;48.800;9.540;2023-01-29T10:21:30;4.10;99.90
17421;DHT22;8828;48.800;9.540;2023-01-29T10:24:08;4.20;99.90
17421;DHT22;8828;48.800;9.540;2023-01-29T10:26:39;4.20;99.90
17421;DHT22;8828;48.800;9.540;2023-01-29T10:29:15;4.30;99.90
17421;DHT22;8828;48.800;9.540;2023-01-29T10:31:45;4.40;99.90
17421;DHT22;8828;48.800;9.540;2023-01-29T10:34:20;4.50;99.90
17421;DHT22;8828;48.800;9.540;2023-01-29T10:36:53;4.60;99.90
17421;DHT22;8828;48.800;9.540;2023-01-29T10:39:23;4.60;99.90
17421;DHT22;8828;48.800;9.540;2023-01-29T10:45:02;4.60;99.90
17421;DHT22;8828;48.800;9.540;2023-01-29T10:47:50;4.60;99.90
17421;DHT22;8828;48.800;9.540;2023-01-29T10:50:36;4.60;99.90
17421;DHT22;8828;48.800;9.540;2023-01-29T10:53:17;4.50;99.90
17421;DHT22;8828;48.800;9.540;2023-01-29T10:55:58;4.50;99.90
17421;DHT22;8828;48.800;9.540;2023-01-29T10:58:50;4.50;99.90
17421;DHT22;8828;48.800;9.540;2023-01-29T11:01:20;4.50;99.90
17421;DHT22;8828;48.800;9.540;2023-01-29T11:03:56;4.40;99.90
17421;DHT22;8828;48.800;9.540;2023-01-29T11:06:29;4.40;99.90
17421;DHT22;8828;48.800;9.540;2023-01-29T11:09:02;4.40;99.90
17421;DHT22;8828;48.800;9.540;2023-01-29T11:11:35;4.40;99.90
17421;DHT22;8828;48.800;9.540;2023-01-29T11:14:10;4.30;99.90
17421;DHT22;8828;48.800;9.540;2023-01-29T11:16:42;4.30;99.90
17421;DHT22;8828;48.800;9.540;2023-01-29T11:19:11;4.30;99.90
17421;DHT22;8828;48.800;9.540;2023-01-29T11:21:51;4.30;99.90
17421;DHT22;8828;48.800;9.540;2023-01-29T11:24:19;4.30;99.90
17421;DHT22;8828;48.800;9.540;2023-01-29T11:26:48;4.30;99.90
17421;DHT22;8828;48.800;9.540;2023-01-29T11:29:36;4.30;99.90
17421;DHT22;8828;48.800;9.540;2023-01-29T11:32:11;4.30;99.90
17421;DHT22;8828;48.800;9.540;2023-01-29T11:34:59;4.30;99.90
17421;DHT22;8828;48.800;9.540;2023-01-29T11:37:33;4.40;99.90
17421;DHT22;8828;48.800;9.540;2023-01-29T11:40:28;4.40;99.90
17421;DHT22;8828;48.800;9.540;2023-01-29T11:43:11;4.40;99.90
17421;DHT22;8828;48.800;9.540;2023-01-29T11:45:39;4.40;99.90
17421;DHT22;8828;48.800;9.540;2023-01-29T11:48:14;4.40;99.90
17421;DHT22;8828;48.800;9.540;2023-01-29T11:50:43;4.40;99.90
17421;DHT22;8828;48.800;9.540;2023-01-29T11:53:25;4.50;99.90
17421;DHT22;8828;48.800;9.540;2023-01-29T11:56:01;4.50;99.90
17421;DHT22;8828;48.800;9.540;2023-01-29T11:58:32;4.50;99.90
17421;DHT22;8828;48.800;9.540;2023-01-29T12:01:01;4.50;99.90
17421;DHT22;8828;48.800;9.540;2023-01-29T12:03:34;4.50;99.90
17421;DHT22;8828;48.800;9.540;2023-01-29T12:06:11;4.50;99.90
17421;DHT22;8828;48.800;9.540;2023-01-29T12:08:40;4.40;99.90
17421;DHT22;8828;48.800;9.540;2023-01-29T12:11:11;4.40;99.90
17421;DHT22;8828;48.800;9.540;2023-01-29T12:13:41;4.40;99.90
17421;DHT22;8828;48.800;9.540;2023-01-29T12:16:17;4.40;99.90
17421;DHT22;8828;48.800;9.540;2023-01-29T12:18:51;4.50;99.90
17421;DHT22;8828;48.800;9.540;2023-01-29T12:21:26;4.60;99.90
17421;DHT22;8828;48.800;9.540;2023-01-29T12:24:00;4.60;99.90
17421;DHT22;8828;48.800;9.540;2023-01-29T12:26:34;4.80;99.90
17421;DHT22;8828;48.800;9.540;2023-01-29T12:29:19;5.00;99.90
17421;DHT22;8828;48.800;9.540;2023-01-29T12:31:54;5.50;99.90
17421;DHT22;8828;48.800;9.540;2023-01-29T12:34:34;6.30;99.90
17421;DHT22;8828;48.800;9.540;2023-01-29T12:37:12;7.00;99.90
17421;DHT22;8828;48.800;9.540;2023-01-29T12:39:40;7.60;99.90
17421;DHT22;8828;48.800;9.540;2023-01-29T12:42:12;8.20;99.90
17421;DHT22;8828;48.800;9.540;2023-01-29T12:44:45;8.50;99.90
17421;DHT22;8828;48.800;9.540;2023-01-29T12:47:18;8.40;99.90
17421;DHT22;8828;48.800;9.540;2023-01-29T12:49:51;8.30;99.90
17421;DHT22;8828;48.800;9.540;2023-01-29T12:52:23;8.20;99.90
17421;DHT22;8828;48.800;9.540;2023-01-29T12:54:59;8.00;99.90
17421;DHT22;8828;48.800;9.540;2023-01-29T12:57:36;8.00;99.90
17421;DHT22;8828;48.800;9.540;2023-01-29T13:00:08;7.90;99.90
17421;DHT22;8828;48.800;9.540;2023-01-29T13:02:42;7.90;99.90
17421;DHT22;8828;48.800;9.540;2023-01-29T13:05:19;7.80;99.90
17421;DHT22;8828;48.800;9.540;2023-01-29T13:07:53;7.70;99.90
17421;DHT22;8828;48.800;9.540;2023-01-29T13:10:26;7.50;99.90
17421;DHT22;8828;48.800;9.540;2023-01-29T13:13:00;7.30;99.90
17421;DHT22;8828;48.800;9.540;2023-01-29T13:15:33;7.10;99.90
17421;DHT22;8828;48.800;9.540;2023-01-29T13:18:31;6.90;99.90
17421;DHT22;8828;48.800;9.540;2023-01-29T13:21:01;6.70;99.90
17421;DHT22;8828;48.800;9.540;2023-01-29T13:23:33;6.50;99.90
17421;DHT22;8828;48.800;9.540;2023-01-29T13:26:03;6.50;99.90
17421;DHT22;8828;48.800;9.540;2023-01-29T13:28:31;6.50;99.90
17421;DHT22;8828;48.800;9.540;2023-01-29T13:31:20;6.50;99.90
17421;DHT22;8828;48.800;9.540;2023-01-29T13:33:55;6.50;99.90
17421;DHT22;8828;48.800;9.540;2023-01-29T13:36:28;6.50;99.90
17421;DHT22;8828;48.800;9.540;2023-01-29T13:39:01;6.60;99.90
17421;DHT22;8828;48.800;9.540;2023-01-29T13:41:32;6.60;99.90
17421;DHT22;8828;48.800;9.540;2023-01-29T13:44:00;6.50;99.90
17421;DHT22;8828;48.800;9.540;2023-01-29T13:46:29;6.50;99.90
17421;DHT22;8828;48.800;9.540;2023-01-29T13:48:58;6.40;99.90
17421;DHT22;8828;48.800;9.540;2023-01-29T13:51:34;6.20;99.90
17421;DHT22;8828;48.800;9.540;2023-01-29T13:54:05;6.10;99.90
17421;DHT22;8828;48.800;9.540;2023-01-29T13:56:57;6.00;99.90
17421;DHT22;8828;48.800;9.540;2023-01-29T13:59:48;5.90;99.90
17421;DHT22;8828;48.800;9.540;2023-01-29T14:02:28;5.90;99.90
17421;DHT22;8828;48.800;9.540;2023-01-29T14:08:04;5.80;99.90
17421;DHT22;8828;48.800;9.540;2023-01-29T14:10:34;5.80;99.90
17421;DHT22;8828;48.800;9.540;2023-01-29T14:13:25;5.80;99.90
17421;DHT22;8828;48.800;9.540;2023-01-29T14:16:26;5.70;99.90
17421;DHT22;8828;48.800;9.540;2023-01-29T14:18:59;5.70;99.90
17421;DHT22;8828;48.800;9.540;2023-01-29T14:21:29;5.50;99.90
17421;DHT22;8828;48.800;9.540;2023-01-29T14:24:08;5.40;99.90
17421;DHT22;8828;48.800;9.540;2023-01-29T14:26:41;5.30;99.90
17421;DHT22;8828;48.800;9.540;2023-01-29T14:29:19;5.20;99.90
17421;DHT22;8828;48.800;9.540;2023-01-29T14:32:09;5.20;99.90
17421;DHT22;8828;48.800;9.540;2023-01-29T14:34:42;5.10;99.90
17421;DHT22;8828;48.800;9.540;2023-01-29T14:37:19;5.10;99.90
17421;DHT22;8828;48.800;9.540;2023-01-29T14:39:50;5.10;99.90
17421;DHT22;8828;48.800;9.540;2023-01-29T14:42:23;5.00;99.90
17421;DHT22;8828;48.800;9.540;2023-01-29T14:44:58;5.00;99.90
17421;DHT22;8828;48.800;9.540;2023-01-29T14:47:52;5.00;99.90
17421;DHT22;8828;48.800;9.540;2023-01-29T14:50:40;5.00;99.90
17421;DHT22;8828;48.800;9.540;2023-01-29T14:53:12;5.00;99.90
17421;DHT22;8828;48.800;9.540;2023-01-29T14:55:43;5.00;99.90
17421;DHT22;8828;48.800;9.540;2023-01-29T14:58:15;4.90;99.90
17421;DHT22;8828;48.800;9.540;2023-01-29T15:00:49;4.90;99.90
17421;DHT22;8828;48.800;9.540;2023-01-29T15:03:19;4.90;99.90
17421;DHT22;8828;48.800;9.540;2023-01-29T15:05:51;4.90;99.90
17421;DHT22;8828;48.800;9.540;2023-01-29T15:08:24;4.80;99.90
17421;DHT22;8828;48.800;9.540;2023-01-29T15:10:59;4.70;99.90
17421;DHT22;8828;48.800;9.540;2023-01-29T15:13:51;4.70;99.90
17421;DHT22;8828;48.800;9.540;2023-01-29T15:16:24;4.60;99.90
17421;DHT22;8828;48.800;9.540;2023-01-29T15:19:06;4.60;99.90
17421;DHT22;8828;48.800;9.540;2023-01-29T15:21:34;4.50;99.90
17421;DHT22;8828;48.800;9.540;2023-01-29T15:24:04;4.50;99.90
17421;DHT22;8828;48.800;9.540;2023-01-29T15:26:34;4.50;99.90
17421;DHT22;8828;48.800;9.540;2023-01-29T15:29:03;4.50;99.90
17421;DHT22;8828;48.800;9.540;2023-01-29T15:31:31;4.50;99.90
17421;DHT22;8828;48.800;9.540;2023-01-29T15:34:06;4.50;99.90
17421;DHT22;8828;48.800;9.540;2023-01-29T15:36:35;4.40;99.90
17421;DHT22;8828;48.800;9.540;2023-01-29T15:39:13;4.30;99.90
17421;DHT22;8828;48.800;9.540;2023-01-29T15:41:42;4.30;99.90
17421;DHT22;8828;48.800;9.540;2023-01-29T15:44:14;4.30;99.90
17421;DHT22;8828;48.800;9.540;2023-01-29T15:46:47;4.20;99.90
17421;DHT22;8828;48.800;9.540;2023-01-29T15:49:27;4.20;99.90
17421;DHT22;8828;48.800;9.540;2023-01-29T15:51:58;4.10;99.90
17421;DHT22;8828;48.800;9.540;2023-01-29T15:54:29;4.00;99.90
17421;DHT22;8828;48.800;9.540;2023-01-29T15:57:00;3.90;99.90
17421;DHT22;8828;48.800;9.540;2023-01-29T15:59:31;3.90;99.90
17421;DHT22;8828;48.800;9.540;2023-01-29T16:02:20;3.80;99.90
17421;DHT22;8828;48.800;9.540;2023-01-29T16:04:53;3.70;99.90
17421;DHT22;8828;48.800;9.540;2023-01-29T16:07:21;3.70;99.90
17421;DHT22;8828;48.800;9.540;2023-01-29T16:09:50;3.70;99.90
17421;DHT22;8828;48.800;9.540;2023-01-29T16:12:20;3.60;99.90
17421;DHT22;8828;48.800;9.540;2023-01-29T16:14:48;3.50;99.90
17421;DHT22;8828;48.800;9.540;2023-01-29T16:17:25;3.60;99.90
17421;DHT22;8828;48.800;9.540;2023-01-29T16:19:55;3.50;99.90
17421;DHT22;8828;48.800;9.540;2023-01-29T16:22:24;3.40;99.90
17421;DHT22;8828;48.800;9.540;2023-01-29T16:24:53;3.30;99.90
17421;DHT22;8828;48.800;9.540;2023-01-29T16:27:23;3.20;99.90
17421;DHT22;8828;48.800;9.540;2023-01-29T16:29:51;3.20;99.90
17421;DHT22;8828;48.800;9.540;2023-01-29T16:32:20;3.20;99.90
17421;DHT22;8828;48.800;9.540;2023-01-29T16:34:48;3.20;99.90
17421;DHT22;8828;48.800;9.540;2023-01-29T16:37:20;3.10;99.90
17421;DHT22;8828;48.800;9.540;2023-01-29T16:39:50;3.00;99.90
17421;DHT22;8828;48.800;9.540;2023-01-29T16:42:23;2.90;99.90
17421;DHT22;8828;48.800;9.540;2023-01-29T16:44:54;2.90;99.90
17421;DHT22;8828;48.800;9.540;2023-01-29T16:47:26;2.90;99.90